AST,Max TemperatureF,Mean TemperatureF,Min TemperatureF,Max Dew PointF,MeanDew PointF,Min DewpointF,Max Humidity, Mean Humidity, Min Humidity, Max Sea Level PressureIn, Mean Sea Level PressureIn, Min Sea Level PressureIn, Max VisibilityMiles, Mean VisibilityMiles, Min VisibilityMiles, Max Wind SpeedMPH, Mean Wind SpeedMPH, Max Gust SpeedMPH,PrecipitationIn, CloudCover, Events, WindDirDegrees
2012-11-1,69,63,57,59,56,54,90,81,63,29.70,29.61,29.50,,,,32,18,41,0.00,,,156
2012-11-2,61,54,47,57,51,43,94,86,77,29.55,29.51,29.46,,,,15,9,21,0.00,,,177
2012-11-3,54,50,45,51,48,43,96,92,86,29.52,29.44,29.36,,,,20,7,21,0.00,,,39
2012-11-4,52,50,48,50,48,44,97,91,85,29.65,29.49,29.35,,,,26,16,32,0.00,,,308
2012-11-5,48,44,40,44,42,39,95,90,83,29.92,29.81,29.66,,,,20,9,22,0.00,,,311
2012-11-6,42,40,37,39,32,25,93,75,59,30.18,29.97,29.80,,,,31,17,40,0.00,,,264
2012-11-7,41,39,37,35,29,24,81,68,56,30.29,30.20,30.01,,,,23,15,38,0.00,,,321
2012-11-8,55,48,40,51,42,35,87,79,70,30.01,29.77,29.44,,,,45,27,67,0.00,,,82
2012-11-9,59,50,42,55,45,38,96,90,77,29.61,29.53,29.47,,,,29,17,39,0.00,,,255
2012-11-10,44,40,37,38,33,27,83,72,62,30.18,29.87,29.62,,,,43,32,54,0.00,,,283
2012-11-11,41,40,40,34,32,30,77,71,65,30.55,30.39,30.20,,,,32,25,36,0.00,,,283
2012-11-12,58,48,39,48,41,29,76,69,62,30.53,30.46,30.38,,,,15,10,21,0.00,,,175
2012-11-13,68,58,48,57,52,40,92,71,49,30.37,30.27,30.19,,,,25,16,37,0.00,,,184
2012-11-14,47,43,39,46,40,37,95,91,84,30.44,30.40,30.30,,,,21,13,,0.00,,,16
2012-11-15,49,44,39,43,39,35,87,82,75,30.40,30.30,30.16,,,,14,11,21,0.00,,,27
2012-11-16,44,42,40,43,39,33,95,85,76,30.21,30.16,30.13,,,,18,10,23,0.00,,,353
2012-11-17,42,39,36,38,33,27,86,77,69,30.53,30.38,30.21,,,,26,18,29,0.00,,,328
2012-11-18,39,37,35,31,27,24,74,68,63,30.66,30.61,30.54,,,,21,15,25,0.00,,,322
2012-11-19,42,38,34,36,30,26,86,73,60,30.63,30.47,30.26,,,,16,10,,0.00,,,237
2012-11-20,51,42,33,41,34,28,92,80,64,30.22,30.17,30.12,,,,17,10,,0.00,,,18
2012-11-21,43,37,31,32,28,26,83,68,55,30.30,30.27,30.22,,,,25,12,36,0.00,,,102
2012-11-22,46,38,31,36,30,25,81,68,57,30.27,30.21,30.12,,,,14,11,,0.00,,,164
2012-11-23,52,46,40,42,36,29,87,69,49,30.12,29.98,29.82,,,,17,11,24,0.00,,,171
2012-11-24,59,52,46,49,46,40,94,80,58,29.79,29.47,29.13,,,,33,15,46,0.00,,,134
2012-11-25,48,42,35,48,35,27,96,81,68,29.40,29.20,29.07,,,,37,22,46,0.00,,,225
2012-11-26,36,34,32,32,28,25,89,77,69,29.90,29.64,29.42,,,,34,30,43,0.00,,,247
2012-11-27,35,33,31,32,27,21,100,80,65,30.32,30.16,29.92,,,,28,22,34,0.00,,,259
2012-11-28,34,30,25,24,22,20,79,71,60,30.32,30.17,29.96,,,,13,8,20,0.00,,,72
2012-11-29,36,33,30,31,27,23,94,77,65,29.94,29.86,29.78,,,,36,19,43,0.00,,,307
2012-11-30,30,26,23,26,22,17,94,81,68,30.27,30.03,29.87,,,,41,34,51,0.00,,,285